DAL375 KDTW-CYYZ
Flight info
| Callsign | DAL375 |
|---|---|
| Flight time | 0h 44m |
| Altitude | 23000 |
| Route | ZETTR4 TANKO DCT APDAX NUBER6 |
| Aircraft | A21N/M-SDE2E3FGHIRWXY/LB1 |
Departure
| Time | 2026-05-08 00:34 |
|---|---|
| Airport | Detroit Metropolitan Wayne County Airport (KDTW) |
Arrival
| Time | 2026-05-08 01:18 |
|---|---|
| Airport | Toronto Pearson International Airport (CYYZ) |
| Time | Latitude | Longitude | Altitude | Speed | Heading |
|---|---|---|---|---|---|
| 2026-05-08 00:19 | 42.21479 | -83.35373 | 639 ft | 0 kts | 180° |
| 2026-05-08 00:24 | 42.21497 | -83.35373 | 639 ft | 3 kts | 180° |
| 2026-05-08 00:25 | 42.21522 | -83.35373 | 639 ft | 3 kts | 180° |
| 2026-05-08 00:25 | 42.21526 | -83.35373 | 639 ft | 0 kts | 180° |
| 2026-05-08 00:28 | 42.21523 | -83.35373 | 639 ft | 0 kts | 180° |
| 2026-05-08 00:28 | 42.21522 | -83.35372 | 639 ft | 0 kts | 167° |
| 2026-05-08 00:28 | 42.21520 | -83.35358 | 639 ft | 5 kts | 88° |
| 2026-05-08 00:29 | 42.21543 | -83.35288 | 638 ft | 10 kts | 65° |
| 2026-05-08 00:29 | 42.21553 | -83.35182 | 638 ft | 12 kts | 90° |
| 2026-05-08 00:29 | 42.21575 | -83.35061 | 638 ft | 14 kts | 51° |
| 2026-05-08 00:29 | 42.21653 | -83.34961 | 638 ft | 16 kts | 43° |
| 2026-05-08 00:30 | 42.21742 | -83.34848 | 638 ft | 18 kts | 43° |
| 2026-05-08 00:30 | 42.21830 | -83.34720 | 638 ft | 19 kts | 70° |
| 2026-05-08 00:30 | 42.21844 | -83.34536 | 639 ft | 19 kts | 69° |
| 2026-05-08 00:30 | 42.21950 | -83.34435 | 638 ft | 18 kts | 27° |
| 2026-05-08 00:31 | 42.22063 | -83.34352 | 638 ft | 18 kts | 30° |
| 2026-05-08 00:31 | 42.22176 | -83.34268 | 638 ft | 18 kts | 28° |
| 2026-05-08 00:31 | 42.22294 | -83.34181 | 638 ft | 20 kts | 30° |
| 2026-05-08 00:31 | 42.22424 | -83.34086 | 636 ft | 21 kts | 28° |
| 2026-05-08 00:32 | 42.22554 | -83.33991 | 635 ft | 21 kts | 28° |
| 2026-05-08 00:32 | 42.22683 | -83.33897 | 635 ft | 20 kts | 29° |
| 2026-05-08 00:32 | 42.22800 | -83.33805 | 635 ft | 19 kts | 28° |
| 2026-05-08 00:32 | 42.22854 | -83.33708 | 635 ft | 7 kts | 125° |
| 2026-05-08 00:33 | 42.22820 | -83.33646 | 635 ft | 8 kts | 141° |
| 2026-05-08 00:33 | 42.22755 | -83.33667 | 635 ft | 16 kts | 208° |
| 2026-05-08 00:33 | 42.22467 | -83.33883 | 635 ft | 82 kts | 209° |
| 2026-05-08 00:33 | 42.21771 | -83.34394 | 639 ft | 141 kts | 210° |
| 2026-05-08 00:34 | 42.20781 | -83.35112 | 827 ft | 172 kts | 210° |
| 2026-05-08 00:34 | 42.19706 | -83.35840 | 1385 ft | 177 kts | 210° |
| 2026-05-08 00:34 | 42.18511 | -83.36253 | 2027 ft | 186 kts | 179° |
| 2026-05-08 00:34 | 42.17226 | -83.35891 | 2577 ft | 196 kts | 169° |
| 2026-05-08 00:35 | 42.15892 | -83.35404 | 2996 ft | 207 kts | 169° |
| 2026-05-08 00:35 | 42.14437 | -83.34879 | 3351 ft | 224 kts | 170° |
| 2026-05-08 00:35 | 42.12855 | -83.34400 | 3631 ft | 244 kts | 172° |
| 2026-05-08 00:35 | 42.11211 | -83.33688 | 4233 ft | 256 kts | 151° |
| 2026-05-08 00:36 | 42.09965 | -83.31954 | 4934 ft | 266 kts | 120° |
| 2026-05-08 00:36 | 42.09507 | -83.29507 | 5392 ft | 282 kts | 89° |
| 2026-05-08 00:36 | 42.09669 | -83.26848 | 5948 ft | 291 kts | 84° |
| 2026-05-08 00:36 | 42.09907 | -83.24149 | 6609 ft | 297 kts | 82° |
| 2026-05-08 00:37 | 42.10287 | -83.21383 | 7284 ft | 301 kts | 75° |
| 2026-05-08 00:37 | 42.10799 | -83.18656 | 7958 ft | 305 kts | 73° |
| 2026-05-08 00:37 | 42.11358 | -83.15925 | 8626 ft | 307 kts | 65° |
| 2026-05-08 00:38 | 42.14246 | -83.12204 | 9978 ft | 290 kts | 21° |
| 2026-05-08 00:38 | 42.16067 | -83.10920 | 10431 ft | 300 kts | 21° |
| 2026-05-08 00:38 | 42.17966 | -83.09581 | 10715 ft | 316 kts | 21° |
| 2026-05-08 00:38 | 42.19940 | -83.08133 | 11031 ft | 331 kts | 22° |
| 2026-05-08 00:39 | 42.21985 | -83.06584 | 11307 ft | 346 kts | 23° |
| 2026-05-08 00:39 | 42.24099 | -83.04970 | 11614 ft | 359 kts | 23° |
| 2026-05-08 00:39 | 42.26318 | -83.03282 | 11899 ft | 371 kts | 23° |
| 2026-05-08 00:39 | 42.28672 | -83.01742 | 12162 ft | 376 kts | 13° |
| 2026-05-08 00:40 | 42.31187 | -83.00880 | 12413 ft | 381 kts | 5° |
| 2026-05-08 00:40 | 42.33829 | -83.00206 | 12822 ft | 388 kts | 4° |
| 2026-05-08 00:40 | 42.36496 | -82.99528 | 13297 ft | 393 kts | 5° |
| 2026-05-08 00:40 | 42.39189 | -82.98798 | 13867 ft | 394 kts | 5° |
| 2026-05-08 00:41 | 42.41880 | -82.98043 | 14309 ft | 399 kts | 6° |
| 2026-05-08 00:41 | 42.44610 | -82.97257 | 14554 ft | 408 kts | 6° |
| 2026-05-08 00:41 | 42.47390 | -82.96444 | 14936 ft | 412 kts | 6° |
| 2026-05-08 00:41 | 42.50212 | -82.95622 | 15397 ft | 414 kts | 6° |
| 2026-05-08 00:42 | 42.53008 | -82.94810 | 15868 ft | 415 kts | 6° |
| 2026-05-08 00:42 | 42.55853 | -82.93985 | 16356 ft | 416 kts | 6° |
| 2026-05-08 00:42 | 42.58662 | -82.93173 | 16776 ft | 418 kts | 6° |
| 2026-05-08 00:42 | 42.61528 | -82.92338 | 17220 ft | 419 kts | 6° |
| 2026-05-08 00:43 | 42.64365 | -82.91505 | 17671 ft | 419 kts | 7° |
| 2026-05-08 00:43 | 42.67211 | -82.90664 | 18105 ft | 420 kts | 7° |
| 2026-05-08 00:43 | 42.70063 | -82.89821 | 18400 ft | 424 kts | 7° |
| 2026-05-08 00:43 | 42.72964 | -82.88961 | 18693 ft | 427 kts | 7° |
| 2026-05-08 00:44 | 42.75883 | -82.88066 | 19023 ft | 432 kts | 10° |
| 2026-05-08 00:44 | 42.78686 | -82.86610 | 19432 ft | 439 kts | 20° |
| 2026-05-08 00:44 | 42.81319 | -82.84449 | 19735 ft | 449 kts | 31° |
| 2026-05-08 00:44 | 42.83744 | -82.81674 | 20041 ft | 455 kts | 37° |
| 2026-05-08 00:45 | 42.86056 | -82.78794 | 20317 ft | 458 kts | 38° |
| 2026-05-08 00:45 | 42.88393 | -82.75850 | 20569 ft | 461 kts | 38° |
| 2026-05-08 00:45 | 42.90675 | -82.72739 | 20842 ft | 467 kts | 44° |
| 2026-05-08 00:45 | 42.92650 | -82.69171 | 20937 ft | 472 kts | 52° |
| 2026-05-08 00:46 | 42.94211 | -82.65259 | 20958 ft | 476 kts | 61° |
| 2026-05-08 00:46 | 42.95545 | -82.61119 | 20945 ft | 477 kts | 63° |
| 2026-05-08 00:46 | 42.96820 | -82.56951 | 20943 ft | 476 kts | 63° |
| 2026-05-08 00:46 | 42.98090 | -82.52787 | 20942 ft | 476 kts | 63° |
| 2026-05-08 00:47 | 42.99363 | -82.48664 | 20942 ft | 475 kts | 63° |
| 2026-05-08 00:47 | 43.00662 | -82.44503 | 20941 ft | 475 kts | 63° |
| 2026-05-08 00:47 | 43.01946 | -82.40374 | 20940 ft | 476 kts | 64° |
| 2026-05-08 00:47 | 43.03099 | -82.36182 | 20938 ft | 477 kts | 67° |
| 2026-05-08 00:48 | 43.04148 | -82.31870 | 20937 ft | 477 kts | 69° |
| 2026-05-08 00:48 | 43.05161 | -82.27580 | 20936 ft | 477 kts | 69° |
| 2026-05-08 00:48 | 43.06180 | -82.23279 | 20946 ft | 477 kts | 69° |
| 2026-05-08 00:48 | 43.07202 | -82.18952 | 20946 ft | 477 kts | 69° |
| 2026-05-08 00:49 | 43.08198 | -82.14700 | 20940 ft | 477 kts | 69° |
| 2026-05-08 00:49 | 43.09215 | -82.10339 | 20940 ft | 477 kts | 69° |
| 2026-05-08 00:49 | 43.10212 | -82.06056 | 20937 ft | 476 kts | 69° |
| 2026-05-08 00:49 | 43.11215 | -82.01733 | 20933 ft | 476 kts | 69° |
| 2026-05-08 00:50 | 43.12214 | -81.97424 | 20937 ft | 476 kts | 69° |
| 2026-05-08 00:50 | 43.13211 | -81.93121 | 20933 ft | 476 kts | 69° |
| 2026-05-08 00:50 | 43.14206 | -81.88815 | 20935 ft | 476 kts | 69° |
| 2026-05-08 00:50 | 43.15186 | -81.84560 | 20929 ft | 476 kts | 69° |
| 2026-05-08 00:51 | 43.16180 | -81.80244 | 20932 ft | 476 kts | 69° |
| 2026-05-08 00:51 | 43.17177 | -81.75904 | 20928 ft | 475 kts | 69° |
| 2026-05-08 00:51 | 43.18162 | -81.71612 | 20926 ft | 475 kts | 70° |
| 2026-05-08 00:51 | 43.19149 | -81.67297 | 20921 ft | 475 kts | 70° |
| 2026-05-08 00:52 | 43.20130 | -81.62999 | 20919 ft | 474 kts | 70° |
| 2026-05-08 00:52 | 43.21100 | -81.58737 | 20916 ft | 474 kts | 70° |
| 2026-05-08 00:52 | 43.22081 | -81.54419 | 20914 ft | 475 kts | 70° |
| 2026-05-08 00:52 | 43.23061 | -81.50100 | 20914 ft | 474 kts | 70° |
| 2026-05-08 00:53 | 43.24034 | -81.45802 | 20913 ft | 474 kts | 70° |
| 2026-05-08 00:53 | 43.25004 | -81.41515 | 20910 ft | 474 kts | 70° |
| 2026-05-08 00:53 | 43.25979 | -81.37189 | 20912 ft | 474 kts | 70° |
| 2026-05-08 00:53 | 43.26942 | -81.32907 | 20910 ft | 474 kts | 70° |
| 2026-05-08 00:54 | 43.27919 | -81.28558 | 20910 ft | 475 kts | 70° |
| 2026-05-08 00:54 | 43.28873 | -81.24285 | 20903 ft | 475 kts | 71° |
| 2026-05-08 00:54 | 43.29778 | -81.19919 | 20908 ft | 475 kts | 72° |
| 2026-05-08 00:54 | 43.30648 | -81.15524 | 20903 ft | 475 kts | 73° |
| 2026-05-08 00:55 | 43.31500 | -81.11168 | 20905 ft | 476 kts | 73° |
| 2026-05-08 00:55 | 43.32355 | -81.06808 | 20906 ft | 475 kts | 72° |
| 2026-05-08 00:55 | 43.33212 | -81.02445 | 20910 ft | 475 kts | 72° |
| 2026-05-08 00:55 | 43.34069 | -80.98086 | 20905 ft | 475 kts | 72° |
| 2026-05-08 00:56 | 43.34926 | -80.93726 | 20902 ft | 475 kts | 72° |
| 2026-05-08 00:56 | 43.35790 | -80.89327 | 20767 ft | 474 kts | 72° |
| 2026-05-08 00:56 | 43.36636 | -80.85013 | 20261 ft | 470 kts | 73° |
| 2026-05-08 00:56 | 43.37485 | -80.80678 | 19796 ft | 467 kts | 72° |
| 2026-05-08 00:57 | 43.38320 | -80.76402 | 19259 ft | 463 kts | 73° |
| 2026-05-08 00:57 | 43.39139 | -80.72200 | 18695 ft | 458 kts | 73° |
| 2026-05-08 00:57 | 43.39955 | -80.68005 | 18104 ft | 454 kts | 73° |
| 2026-05-08 00:57 | 43.40762 | -80.63844 | 17499 ft | 449 kts | 73° |
| 2026-05-08 00:58 | 43.41555 | -80.59746 | 16896 ft | 445 kts | 73° |
| 2026-05-08 00:58 | 43.42348 | -80.55644 | 16358 ft | 438 kts | 73° |
| 2026-05-08 00:58 | 43.43114 | -80.51668 | 15984 ft | 426 kts | 73° |
| 2026-05-08 00:58 | 43.43844 | -80.47868 | 15761 ft | 400 kts | 73° |
| 2026-05-08 00:59 | 43.44529 | -80.44288 | 15526 ft | 374 kts | 73° |
| 2026-05-08 00:59 | 43.45172 | -80.40924 | 15309 ft | 357 kts | 72° |
| 2026-05-08 00:59 | 43.45856 | -80.37666 | 15109 ft | 353 kts | 69° |
| 2026-05-08 00:59 | 43.46673 | -80.34512 | 14914 ft | 353 kts | 67° |
| 2026-05-08 01:00 | 43.47552 | -80.31367 | 14723 ft | 351 kts | 67° |
| 2026-05-08 01:00 | 43.48438 | -80.28226 | 14551 ft | 350 kts | 66° |
| 2026-05-08 01:00 | 43.49300 | -80.25156 | 14404 ft | 349 kts | 67° |
| 2026-05-08 01:00 | 43.50169 | -80.22041 | 14261 ft | 347 kts | 67° |
| 2026-05-08 01:01 | 43.51024 | -80.18963 | 13867 ft | 339 kts | 67° |
| 2026-05-08 01:01 | 43.51844 | -80.15939 | 13035 ft | 340 kts | 68° |
| 2026-05-08 01:01 | 43.52646 | -80.12939 | 12220 ft | 338 kts | 68° |
| 2026-05-08 01:01 | 43.53448 | -80.09920 | 11443 ft | 335 kts | 68° |
| 2026-05-08 01:02 | 43.54250 | -80.06907 | 10684 ft | 331 kts | 68° |
| 2026-05-08 01:02 | 43.55024 | -80.03997 | 10122 ft | 322 kts | 68° |
| 2026-05-08 01:02 | 43.55781 | -80.01151 | 9518 ft | 315 kts | 68° |
| 2026-05-08 01:02 | 43.56520 | -79.98364 | 8835 ft | 311 kts | 68° |
| 2026-05-08 01:03 | 43.57261 | -79.95570 | 8240 ft | 306 kts | 68° |
| 2026-05-08 01:03 | 43.57982 | -79.92846 | 7989 ft | 297 kts | 68° |
| 2026-05-08 01:03 | 43.58672 | -79.90234 | 7981 ft | 285 kts | 68° |
| 2026-05-08 01:03 | 43.59259 | -79.87646 | 7980 ft | 285 kts | 76° |
| 2026-05-08 01:04 | 43.59523 | -79.84961 | 7981 ft | 286 kts | 86° |
| 2026-05-08 01:04 | 43.59573 | -79.82212 | 7978 ft | 286 kts | 89° |
| 2026-05-08 01:04 | 43.59574 | -79.79479 | 7976 ft | 287 kts | 89° |
| 2026-05-08 01:04 | 43.59573 | -79.76754 | 7980 ft | 275 kts | 89° |
| 2026-05-08 01:05 | 43.59580 | -79.74194 | 7927 ft | 262 kts | 89° |
| 2026-05-08 01:05 | 43.59592 | -79.71749 | 7753 ft | 254 kts | 89° |
| 2026-05-08 01:05 | 43.59607 | -79.69322 | 7489 ft | 251 kts | 89° |
| 2026-05-08 01:05 | 43.59623 | -79.66952 | 7179 ft | 249 kts | 89° |
| 2026-05-08 01:06 | 43.59640 | -79.64570 | 6864 ft | 247 kts | 88° |
| 2026-05-08 01:06 | 43.59653 | -79.62197 | 6543 ft | 246 kts | 89° |
| 2026-05-08 01:06 | 43.59658 | -79.59851 | 6232 ft | 245 kts | 89° |
| 2026-05-08 01:06 | 43.59661 | -79.57524 | 6008 ft | 242 kts | 88° |
| 2026-05-08 01:07 | 43.59718 | -79.55216 | 5993 ft | 243 kts | 77° |
| 2026-05-08 01:07 | 43.60366 | -79.53165 | 5970 ft | 228 kts | 46° |
| 2026-05-08 01:07 | 43.61400 | -79.51611 | 5839 ft | 216 kts | 41° |
| 2026-05-08 01:07 | 43.62458 | -79.50154 | 5601 ft | 211 kts | 40° |
| 2026-05-08 01:08 | 43.63481 | -79.48741 | 5316 ft | 210 kts | 41° |
| 2026-05-08 01:08 | 43.64503 | -79.47300 | 5020 ft | 209 kts | 41° |
| 2026-05-08 01:08 | 43.65511 | -79.45856 | 4734 ft | 207 kts | 42° |
| 2026-05-08 01:08 | 43.66489 | -79.44441 | 4456 ft | 206 kts | 42° |
| 2026-05-08 01:09 | 43.67469 | -79.43016 | 4180 ft | 204 kts | 42° |
| 2026-05-08 01:09 | 43.68440 | -79.41598 | 4002 ft | 200 kts | 43° |
| 2026-05-08 01:09 | 43.69393 | -79.40207 | 4024 ft | 201 kts | 42° |
| 2026-05-08 01:09 | 43.70368 | -79.38783 | 4083 ft | 202 kts | 42° |
| 2026-05-08 01:10 | 43.71310 | -79.37405 | 4019 ft | 197 kts | 42° |
| 2026-05-08 01:10 | 43.72250 | -79.36030 | 4004 ft | 196 kts | 43° |
| 2026-05-08 01:10 | 43.73180 | -79.34669 | 3997 ft | 196 kts | 43° |
| 2026-05-08 01:10 | 43.74131 | -79.33277 | 3996 ft | 197 kts | 43° |
| 2026-05-08 01:11 | 43.75063 | -79.31915 | 4005 ft | 196 kts | 43° |
| 2026-05-08 01:11 | 43.76004 | -79.30534 | 3998 ft | 196 kts | 43° |
| 2026-05-08 01:11 | 43.76979 | -79.29268 | 3981 ft | 192 kts | 28° |
| 2026-05-08 01:11 | 43.78243 | -79.28883 | 3976 ft | 183 kts | 348° |
| 2026-05-08 01:12 | 43.79369 | -79.29603 | 4001 ft | 181 kts | 324° |
| 2026-05-08 01:12 | 43.80376 | -79.30666 | 3992 ft | 180 kts | 317° |
| 2026-05-08 01:12 | 43.81004 | -79.32111 | 3961 ft | 180 kts | 281° |
| 2026-05-08 01:12 | 43.80936 | -79.33783 | 3968 ft | 168 kts | 263° |
| 2026-05-08 01:13 | 43.80708 | -79.35277 | 3966 ft | 153 kts | 260° |
| 2026-05-08 01:13 | 43.80462 | -79.36742 | 4005 ft | 159 kts | 260° |
| 2026-05-08 01:13 | 43.80208 | -79.38254 | 4003 ft | 162 kts | 260° |
| 2026-05-08 01:13 | 43.79956 | -79.39769 | 3998 ft | 163 kts | 260° |
| 2026-05-08 01:14 | 43.79653 | -79.41282 | 3986 ft | 164 kts | 250° |
| 2026-05-08 01:14 | 43.79062 | -79.42654 | 3884 ft | 167 kts | 238° |
| 2026-05-08 01:14 | 43.78332 | -79.43906 | 3658 ft | 168 kts | 234° |
| 2026-05-08 01:14 | 43.77562 | -79.45119 | 3434 ft | 169 kts | 232° |
| 2026-05-08 01:15 | 43.76767 | -79.46312 | 3210 ft | 169 kts | 231° |
| 2026-05-08 01:15 | 43.75966 | -79.47482 | 2984 ft | 169 kts | 231° |
| 2026-05-08 01:15 | 43.75158 | -79.48653 | 2757 ft | 168 kts | 230° |
| 2026-05-08 01:15 | 43.74353 | -79.49815 | 2522 ft | 163 kts | 230° |
| 2026-05-08 01:16 | 43.73597 | -79.50907 | 2296 ft | 153 kts | 230° |
| 2026-05-08 01:16 | 43.72889 | -79.51928 | 2057 ft | 144 kts | 230° |
| 2026-05-08 01:16 | 43.72190 | -79.52935 | 1870 ft | 143 kts | 230° |
| 2026-05-08 01:16 | 43.71504 | -79.53920 | 1720 ft | 143 kts | 230° |
| 2026-05-08 01:17 | 43.70821 | -79.54915 | 1536 ft | 142 kts | 230° |
| 2026-05-08 01:17 | 43.70145 | -79.55906 | 1322 ft | 142 kts | 229° |
| 2026-05-08 01:17 | 43.69468 | -79.56896 | 1127 ft | 142 kts | 229° |
| 2026-05-08 01:17 | 43.68791 | -79.57889 | 938 ft | 141 kts | 228° |
| 2026-05-08 01:18 | 43.68111 | -79.58869 | 751 ft | 141 kts | 228° |
| 2026-05-08 01:18 | 43.67440 | -79.59847 | 563 ft | 140 kts | 228° |
| 2026-05-08 01:18 | 43.66828 | -79.60746 | 545 ft | 109 kts | 226° |
| 2026-05-08 01:18 | 43.66495 | -79.61233 | 540 ft | 45 kts | 234° |
| 2026-05-08 01:19 | 43.66399 | -79.61517 | 541 ft | 18 kts | 251° |
| 2026-05-08 01:19 | 43.66379 | -79.61596 | 541 ft | 0 kts | 253° |
| 2026-05-08 01:19 | 43.66374 | -79.61626 | 541 ft | 8 kts | 263° |
| 2026-05-08 01:19 | 43.66406 | -79.61731 | 541 ft | 16 kts | 315° |
| 2026-05-08 01:20 | 43.66489 | -79.61843 | 543 ft | 16 kts | 318° |
| 2026-05-08 01:20 | 43.66569 | -79.61948 | 545 ft | 15 kts | 316° |
| 2026-05-08 01:20 | 43.66654 | -79.62019 | 546 ft | 14 kts | 12° |
| 2026-05-08 01:20 | 43.66730 | -79.61935 | 549 ft | 14 kts | 45° |
| 2026-05-08 01:21 | 43.66806 | -79.61839 | 552 ft | 14 kts | 43° |
| 2026-05-08 01:21 | 43.66878 | -79.61748 | 552 ft | 12 kts | 41° |
| 2026-05-08 01:21 | 43.66946 | -79.61664 | 552 ft | 13 kts | 42° |
| 2026-05-08 01:21 | 43.67015 | -79.61577 | 554 ft | 14 kts | 44° |
| 2026-05-08 01:22 | 43.67107 | -79.61458 | 555 ft | 22 kts | 43° |
| 2026-05-08 01:22 | 43.67211 | -79.61308 | 557 ft | 18 kts | 53° |
| 2026-05-08 01:22 | 43.67308 | -79.61302 | 559 ft | 16 kts | 315° |
| 2026-05-08 01:22 | 43.67417 | -79.61446 | 562 ft | 26 kts | 317° |
| 2026-05-08 01:23 | 43.67559 | -79.61633 | 565 ft | 27 kts | 317° |
| 2026-05-08 01:23 | 43.67688 | -79.61802 | 567 ft | 24 kts | 316° |
| 2026-05-08 01:23 | 43.67813 | -79.61964 | 570 ft | 24 kts | 316° |
| 2026-05-08 01:23 | 43.67945 | -79.62083 | 572 ft | 21 kts | 338° |
| 2026-05-08 01:24 | 43.68057 | -79.62213 | 573 ft | 20 kts | 316° |
| 2026-05-08 01:24 | 43.68161 | -79.62350 | 573 ft | 20 kts | 316° |
| 2026-05-08 01:24 | 43.68273 | -79.62402 | 571 ft | 19 kts | 49° |
| 2026-05-08 01:24 | 43.68320 | -79.62264 | 570 ft | 10 kts | 71° |
| 2026-05-08 01:25 | 43.68309 | -79.62161 | 570 ft | 8 kts | 103° |
| 2026-05-08 01:25 | 43.68304 | -79.62131 | 570 ft | 0 kts | 103° |